METAR Data
IDs: Format: Raw Decoded Include TAF

Data at: 1036 UTC 22 Oct 2018

PAWG 220956Z AUTO 14004KT 10SM OVC065 08/07 A2982 RMK AO2 RAB37E55 SLP099 P0000 T00830067 TSNO
PAWG 220856Z AUTO 10007KT 10SM OVC070 08/07 A2983 RMK AO2 SLP103 6//// T00830067 401000072 58013 TSNO
PAWG 220756Z AUTO 10006KT 10SM OVC095 09/07 A2986 RMK AO2 SLP111 T00890067 TSNO PNO $
PAWG 220656Z AUTO 10005KT 10SM OVC090 09/06 A2986 RMK AO2 SLP113 T00890061 TSNO PNO $
PAWG 220556Z 11006KT 10SM OVC090 08/07 A2987 RMK AO2 SLP116 6//// T00830067 10100 20083 58012 PNO $
PAWG 220456Z 12005KT 10SM OVC090 09/07 A2991 RMK AO2 SLP129 T00890067 PNO $
PAWG 220356Z 12008KT 10SM OVC100 09/07 A2991 RMK AO2 SLP129 T00890072 PNO $
PAWG 220256Z 10006KT 10SM OVC100 08/07 A2991 RMK AO2 SLP128 6//// T00830072 58007 PNO $
PAWG 220156Z 12008KT 10SM OVC100 09/07 A2992 RMK AO2 SLP132 T00890072 PNO $
PAWG 220056Z 14005KT 10SM BKN110 09/07 A2994 RMK AO2 SLP138 T00890072 PNO $
PAWG 212355Z 13004KT 10SM BKN110 10/07 A2993
PAWG 212256Z VRB03KT 10SM SCT100 BKN150 09/07 A2995 RMK AO2 SLP143 T00940067 PNO $
PAWG 212156Z 11004KT 10SM SCT100 BKN150 09/07 A2999 RMK AO2 SLP155 T00890067 PNO $
PAWG 212056Z 10005KT 10SM FEW006 SCT100 BKN150 09/07 A3001 RMK AO2 SLP162 6//// T00890067 58019 PNO $
PAWG 211956Z 10006KT 10SM FEW005 SCT100 OVC150 08/07 A3003 RMK AO2 SLP170 T00830067 PNO $
PAWG 211856Z 09004KT 10SM FEW005 SCT100 OVC150 08/07 A3005 RMK AO2 SLP178 T00780067 PNO $
PAWG 211756Z 11004KT 10SM FEW005 SCT100 OVC150 08/06 A3006 RMK AO2 SLP181 6//// T00780061 10083 20072 56014 PNO $
PAWG 211656Z 09006KT 10SM FEW005 SCT100 OVC150 08/06 A3007 RMK AO2 SLP184 T00780061 PNO $
PAWG 211556Z 08011KT 10SM FEW006 SCT100 BKN150 08/06 A3008
PAWG 211456Z 10008KT 10SM FEW008 SCT120 08/06 A3011 RMK AO2 SLP195 6//// T00780061 56017 PNO $
PAWG 211356Z 12006KT 10SM SCT120 08/07 A3012
PAWG 211256Z AUTO VRB05KT 10SM CLR 08/07 A3014 RMK AO2 SLP205 T00830067 TSNO PNO $
PAWG 211156Z AUTO 10007KT 10SM SCT055 08/07 A3016 RMK AO2 SLP212 6//// 7//// T00830072 10100 20083 56013 TSNO PNO $
PAWG 211056Z AUTO VRB05KT 10SM BKN050 OVC060 09/07 A3017 RMK AO2 SLP216 T00890072 TSNO PNO $
PAWG 210956Z AUTO 06006KT 10SM SCT050 OVC070 09/07 A3018 RMK AO2 SLP219 T00890072 TSNO PNO $
PAWG 210856Z AUTO 06006KT 10SM BKN037 OVC060 09/07 A3019 RMK AO2 SLP224 6//// T00940072 401060083 58007 TSNO PNO $
PAWG 210756Z AUTO 09008KT 10SM FEW028 OVC039 10/07 A3020 RMK AO2 SLP227 T01000072 TSNO PNO $
PAWG 210656Z AUTO 08008KT 10SM OVC045 09/08 A3021 RMK AO2 RAB0557E26 SLP230 T00890078 TSNO PNO $
PAWG 210556Z 08008KT 10SM OVC045 09/08 A3021 RMK AO2 SLP232 6//// T00940078 10094 20089 50001 PNO $
PAWG 210456Z 07009KT 10SM OVC040 09/08 A3022 RMK AO2 RAE06B23E43 SLP233 T00940078 PNO $
PAWG 210356Z 08007KT 10SM -RA OVC040 09/08 A3022 RMK AO2 RAB49 SLP234 T00890078 PNO $
PAWG 210256Z 08010G14KT 10SM OVC040 09/08 A3021 RMK AO2 SLP231 6//// T00940078 56007 PNO $
PAWG 210155Z 13006KT 10SM SCT050 OVC070 09/08 A3021
PAWG 210056Z 12007KT 10SM SCT050 OVC070 09/08 A3022 RMK AO2 RAE43 SLP234 T00940083 PNO $
PAWG 202356Z 13003KT 8SM -RA BKN030 OVC040 09/08 A3023 RMK AO2 SLP238 6//// T00940083 10106 20089 56008 PNO $
PAWG 202256Z 05003KT 10SM -RA BKN040 BKN060 OVC080 10/08 A3024 RMK AO2 SLP240 T01000078 PNO $